Mears, Virginia
Current Conditions -  °F | °C
As of 9:54 PM on Wednesday 26 Nov 2014 (Local Time) from KWAL Reporting Station
Overcast Overcast  
Wind Chill: 31°   Ceiling: 1100
Heat Index: 38°   Visibility: 10mi
Dew Point: 36°   Wind: 9mph
Humidity: 93%   Direction: 310°NW
Pressure: 29.96"   Gusts: NA
Location:  37.86°N, 75.62°W
Report Text: KWAL 270254Z AUTO 31008KT 10SM OVC011 03/02 A2996 RMK AO2 SLP141 T00330022 53031
Loading
Personal Weather Stations






























Interactive Weather Map New forecast layout! Learn more

10-Day Weather Forecast

Advertisements
Track Severe Weather on mobile